sensor_id;sensor_type;location;lat;lon;timestamp;P1;durP1;ratioP1;P2;durP2;ratioP2
67571;SDS011;54397;47.506;19.158;2023-06-14T00:00:02;2.00;;;1.77;;
67571;SDS011;54397;47.506;19.158;2023-06-14T00:03:25;3.95;;;2.28;;
67571;SDS011;54397;47.506;19.158;2023-06-14T00:06:49;4.13;;;1.92;;
67571;SDS011;54397;47.506;19.158;2023-06-14T00:10:12;2.80;;;2.10;;
67571;SDS011;54397;47.506;19.158;2023-06-14T00:13:34;2.20;;;2.00;;
67571;SDS011;54397;47.506;19.158;2023-06-14T00:16:55;2.15;;;1.95;;
67571;SDS011;54397;47.506;19.158;2023-06-14T00:20:20;3.60;;;2.70;;
67571;SDS011;54397;47.506;19.158;2023-06-14T00:23:42;6.57;;;3.08;;
67571;SDS011;54397;47.506;19.158;2023-06-14T00:27:07;4.07;;;2.00;;
67571;SDS011;54397;47.506;19.158;2023-06-14T00:30:31;3.42;;;2.33;;
67571;SDS011;54397;47.506;19.158;2023-06-14T00:33:53;2.38;;;1.77;;
67571;SDS011;54397;47.506;19.158;2023-06-14T00:37:15;2.45;;;2.22;;
67571;SDS011;54397;47.506;19.158;2023-06-14T00:40:36;2.72;;;2.10;;
67571;SDS011;54397;47.506;19.158;2023-06-14T00:44:03;3.42;;;2.75;;
67571;SDS011;54397;47.506;19.158;2023-06-14T00:47:27;2.97;;;2.08;;
67571;SDS011;54397;47.506;19.158;2023-06-14T00:50:49;3.13;;;2.50;;
67571;SDS011;54397;47.506;19.158;2023-06-14T00:54:14;7.53;;;2.80;;
67571;SDS011;54397;47.506;19.158;2023-06-14T00:57:35;3.67;;;2.53;;
67571;SDS011;54397;47.506;19.158;2023-06-14T01:01:03;4.28;;;2.80;;
67571;SDS011;54397;47.506;19.158;2023-06-14T01:04:25;5.20;;;3.42;;
67571;SDS011;54397;47.506;19.158;2023-06-14T01:11:31;3.85;;;2.75;;
67571;SDS011;54397;47.506;19.158;2023-06-14T01:14:59;5.57;;;2.92;;
67571;SDS011;54397;47.506;19.158;2023-06-14T01:18:27;3.95;;;2.90;;
67571;SDS011;54397;47.506;19.158;2023-06-14T01:21:53;4.03;;;2.38;;
67571;SDS011;54397;47.506;19.158;2023-06-14T01:25:16;4.88;;;2.83;;
67571;SDS011;54397;47.506;19.158;2023-06-14T01:28:42;4.80;;;3.28;;
67571;SDS011;54397;47.506;19.158;2023-06-14T01:32:09;3.50;;;2.55;;
67571;SDS011;54397;47.506;19.158;2023-06-14T01:35:36;3.40;;;2.85;;
67571;SDS011;54397;47.506;19.158;2023-06-14T01:39:00;4.43;;;2.90;;
67571;SDS011;54397;47.506;19.158;2023-06-14T01:42:25;4.95;;;2.85;;
67571;SDS011;54397;47.506;19.158;2023-06-14T01:45:52;4.47;;;2.80;;
67571;SDS011;54397;47.506;19.158;2023-06-14T01:49:16;4.13;;;2.97;;
67571;SDS011;54397;47.506;19.158;2023-06-14T01:52:37;12.45;;;7.53;;
67571;SDS011;54397;47.506;19.158;2023-06-14T01:56:02;6.97;;;4.75;;
67571;SDS011;54397;47.506;19.158;2023-06-14T01:59:24;4.22;;;3.20;;
67571;SDS011;54397;47.506;19.158;2023-06-14T02:02:48;3.83;;;3.15;;
67571;SDS011;54397;47.506;19.158;2023-06-14T02:06:11;4.05;;;3.25;;
67571;SDS011;54397;47.506;19.158;2023-06-14T02:09:34;4.63;;;2.92;;
67571;SDS011;54397;47.506;19.158;2023-06-14T02:12:56;4.15;;;2.83;;
67571;SDS011;54397;47.506;19.158;2023-06-14T02:16:20;3.47;;;2.78;;
67571;SDS011;54397;47.506;19.158;2023-06-14T02:19:46;3.88;;;2.85;;
67571;SDS011;54397;47.506;19.158;2023-06-14T02:23:14;5.07;;;3.10;;
67571;SDS011;54397;47.506;19.158;2023-06-14T02:26:36;4.10;;;2.90;;
67571;SDS011;54397;47.506;19.158;2023-06-14T02:33:27;2.85;;;2.55;;
67571;SDS011;54397;47.506;19.158;2023-06-14T02:36:48;4.75;;;3.10;;
67571;SDS011;54397;47.506;19.158;2023-06-14T02:40:11;3.92;;;2.90;;
67571;SDS011;54397;47.506;19.158;2023-06-14T02:43:33;8.27;;;3.00;;
67571;SDS011;54397;47.506;19.158;2023-06-14T02:46:59;5.45;;;2.97;;
67571;SDS011;54397;47.506;19.158;2023-06-14T02:50:22;3.00;;;2.53;;
67571;SDS011;54397;47.506;19.158;2023-06-14T02:53:46;4.40;;;3.08;;
67571;SDS011;54397;47.506;19.158;2023-06-14T02:57:08;5.38;;;3.13;;
67571;SDS011;54397;47.506;19.158;2023-06-14T03:00:30;6.35;;;3.72;;
67571;SDS011;54397;47.506;19.158;2023-06-14T03:03:52;4.78;;;3.38;;
67571;SDS011;54397;47.506;19.158;2023-06-14T03:07:13;8.52;;;3.45;;
67571;SDS011;54397;47.506;19.158;2023-06-14T03:10:41;5.20;;;2.80;;
67571;SDS011;54397;47.506;19.158;2023-06-14T03:14:04;7.35;;;3.65;;
67571;SDS011;54397;47.506;19.158;2023-06-14T03:17:28;4.55;;;3.45;;
67571;SDS011;54397;47.506;19.158;2023-06-14T03:20:54;7.68;;;4.10;;
67571;SDS011;54397;47.506;19.158;2023-06-14T03:24:18;5.80;;;3.63;;
67571;SDS011;54397;47.506;19.158;2023-06-14T03:27:42;3.72;;;2.58;;
67571;SDS011;54397;47.506;19.158;2023-06-14T03:31:05;6.13;;;3.33;;
67571;SDS011;54397;47.506;19.158;2023-06-14T03:34:27;4.10;;;2.63;;
67571;SDS011;54397;47.506;19.158;2023-06-14T03:37:49;4.75;;;3.33;;
67571;SDS011;54397;47.506;19.158;2023-06-14T03:41:13;5.95;;;3.53;;
67571;SDS011;54397;47.506;19.158;2023-06-14T03:44:35;4.65;;;3.03;;
67571;SDS011;54397;47.506;19.158;2023-06-14T03:47:56;3.97;;;3.22;;
67571;SDS011;54397;47.506;19.158;2023-06-14T03:51:19;6.22;;;3.65;;
67571;SDS011;54397;47.506;19.158;2023-06-14T03:54:41;5.05;;;3.42;;
67571;SDS011;54397;47.506;19.158;2023-06-14T03:58:08;3.80;;;2.80;;
67571;SDS011;54397;47.506;19.158;2023-06-14T04:01:30;5.43;;;3.22;;
67571;SDS011;54397;47.506;19.158;2023-06-14T04:04:52;4.82;;;3.47;;
67571;SDS011;54397;47.506;19.158;2023-06-14T04:08:15;6.05;;;3.45;;
67571;SDS011;54397;47.506;19.158;2023-06-14T04:11:37;4.53;;;3.53;;
67571;SDS011;54397;47.506;19.158;2023-06-14T04:15:01;4.75;;;3.30;;
67571;SDS011;54397;47.506;19.158;2023-06-14T04:18:42;3.60;;;2.90;;
67571;SDS011;54397;47.506;19.158;2023-06-14T04:22:06;3.55;;;2.60;;
67571;SDS011;54397;47.506;19.158;2023-06-14T04:25:28;6.50;;;3.35;;
67571;SDS011;54397;47.506;19.158;2023-06-14T04:28:51;6.25;;;2.83;;
67571;SDS011;54397;47.506;19.158;2023-06-14T04:32:13;5.53;;;3.08;;
67571;SDS011;54397;47.506;19.158;2023-06-14T04:35:40;5.53;;;3.55;;
67571;SDS011;54397;47.506;19.158;2023-06-14T04:39:05;6.68;;;2.97;;
67571;SDS011;54397;47.506;19.158;2023-06-14T04:42:27;4.05;;;2.92;;
67571;SDS011;54397;47.506;19.158;2023-06-14T04:45:52;5.28;;;3.35;;
67571;SDS011;54397;47.506;19.158;2023-06-14T04:49:17;5.75;;;3.25;;
67571;SDS011;54397;47.506;19.158;2023-06-14T04:52:39;4.30;;;2.70;;
67571;SDS011;54397;47.506;19.158;2023-06-14T04:56:02;6.15;;;3.15;;
67571;SDS011;54397;47.506;19.158;2023-06-14T04:59:25;6.32;;;3.60;;
67571;SDS011;54397;47.506;19.158;2023-06-14T05:02:47;5.90;;;3.00;;
67571;SDS011;54397;47.506;19.158;2023-06-14T05:06:10;4.95;;;3.10;;
67571;SDS011;54397;47.506;19.158;2023-06-14T05:09:36;9.05;;;3.15;;
67571;SDS011;54397;47.506;19.158;2023-06-14T05:13:00;7.93;;;4.60;;
67571;SDS011;54397;47.506;19.158;2023-06-14T05:16:22;4.47;;;3.20;;
67571;SDS011;54397;47.506;19.158;2023-06-14T05:19:46;8.68;;;2.92;;
67571;SDS011;54397;47.506;19.158;2023-06-14T05:23:08;4.75;;;3.22;;
67571;SDS011;54397;47.506;19.158;2023-06-14T05:26:36;3.40;;;2.92;;
67571;SDS011;54397;47.506;19.158;2023-06-14T05:29:58;4.90;;;3.20;;
67571;SDS011;54397;47.506;19.158;2023-06-14T05:33:22;7.93;;;5.05;;
67571;SDS011;54397;47.506;19.158;2023-06-14T05:36:44;5.88;;;3.13;;
67571;SDS011;54397;47.506;19.158;2023-06-14T05:40:08;3.80;;;2.72;;
67571;SDS011;54397;47.506;19.158;2023-06-14T05:43:30;3.97;;;2.65;;
67571;SDS011;54397;47.506;19.158;2023-06-14T05:46:53;4.10;;;3.10;;
67571;SDS011;54397;47.506;19.158;2023-06-14T05:50:14;3.67;;;2.60;;
67571;SDS011;54397;47.506;19.158;2023-06-14T05:53:40;4.13;;;3.08;;
67571;SDS011;54397;47.506;19.158;2023-06-14T05:57:02;7.28;;;2.83;;
67571;SDS011;54397;47.506;19.158;2023-06-14T06:00:27;3.97;;;3.00;;
67571;SDS011;54397;47.506;19.158;2023-06-14T06:03:51;4.63;;;3.30;;
67571;SDS011;54397;47.506;19.158;2023-06-14T06:07:13;4.50;;;3.22;;
67571;SDS011;54397;47.506;19.158;2023-06-14T06:10:37;4.50;;;3.30;;
67571;SDS011;54397;47.506;19.158;2023-06-14T06:13:59;3.50;;;2.78;;
67571;SDS011;54397;47.506;19.158;2023-06-14T06:17:23;3.45;;;2.60;;
67571;SDS011;54397;47.506;19.158;2023-06-14T06:21:09;5.10;;;2.58;;
67571;SDS011;54397;47.506;19.158;2023-06-14T06:24:30;3.75;;;2.80;;
67571;SDS011;54397;47.506;19.158;2023-06-14T06:27:55;2.83;;;2.47;;
67571;SDS011;54397;47.506;19.158;2023-06-14T06:31:19;3.97;;;2.70;;
67571;SDS011;54397;47.506;19.158;2023-06-14T06:34:43;3.08;;;2.53;;
67571;SDS011;54397;47.506;19.158;2023-06-14T06:38:08;4.20;;;2.70;;
67571;SDS011;54397;47.506;19.158;2023-06-14T06:41:32;3.53;;;2.50;;
67571;SDS011;54397;47.506;19.158;2023-06-14T06:44:56;2.72;;;2.15;;
67571;SDS011;54397;47.506;19.158;2023-06-14T06:48:17;4.38;;;2.95;;
67571;SDS011;54397;47.506;19.158;2023-06-14T06:51:42;4.85;;;2.58;;
67571;SDS011;54397;47.506;19.158;2023-06-14T06:55:25;4.20;;;2.60;;
67571;SDS011;54397;47.506;19.158;2023-06-14T06:58:49;4.00;;;2.78;;
67571;SDS011;54397;47.506;19.158;2023-06-14T07:02:14;3.28;;;2.50;;
67571;SDS011;54397;47.506;19.158;2023-06-14T07:05:36;5.22;;;3.00;;
67571;SDS011;54397;47.506;19.158;2023-06-14T07:08:58;3.92;;;2.78;;
67571;SDS011;54397;47.506;19.158;2023-06-14T07:12:23;3.92;;;2.40;;
67571;SDS011;54397;47.506;19.158;2023-06-14T07:15:44;3.35;;;2.40;;
67571;SDS011;54397;47.506;19.158;2023-06-14T07:19:06;2.50;;;2.08;;
67571;SDS011;54397;47.506;19.158;2023-06-14T07:22:28;2.38;;;2.17;;
67571;SDS011;54397;47.506;19.158;2023-06-14T07:25:50;2.42;;;2.08;;
67571;SDS011;54397;47.506;19.158;2023-06-14T07:29:12;4.25;;;2.38;;
67571;SDS011;54397;47.506;19.158;2023-06-14T07:32:36;3.90;;;2.53;;
67571;SDS011;54397;47.506;19.158;2023-06-14T07:36:01;2.92;;;2.28;;
67571;SDS011;54397;47.506;19.158;2023-06-14T07:39:25;3.65;;;2.80;;
67571;SDS011;54397;47.506;19.158;2023-06-14T07:42:47;3.80;;;3.08;;
67571;SDS011;54397;47.506;19.158;2023-06-14T07:46:11;6.53;;;3.60;;
67571;SDS011;54397;47.506;19.158;2023-06-14T07:49:35;5.07;;;3.17;;
67571;SDS011;54397;47.506;19.158;2023-06-14T07:52:59;5.38;;;2.78;;
67571;SDS011;54397;47.506;19.158;2023-06-14T07:56:24;2.72;;;2.30;;
67571;SDS011;54397;47.506;19.158;2023-06-14T07:59:46;4.28;;;2.70;;
67571;SDS011;54397;47.506;19.158;2023-06-14T08:03:07;2.95;;;2.45;;
67571;SDS011;54397;47.506;19.158;2023-06-14T08:06:29;2.42;;;2.20;;
67571;SDS011;54397;47.506;19.158;2023-06-14T08:09:52;2.65;;;2.30;;
67571;SDS011;54397;47.506;19.158;2023-06-14T08:13:13;2.55;;;1.90;;
67571;SDS011;54397;47.506;19.158;2023-06-14T08:16:35;3.17;;;2.88;;
67571;SDS011;54397;47.506;19.158;2023-06-14T08:19:57;3.88;;;2.65;;
67571;SDS011;54397;47.506;19.158;2023-06-14T08:23:19;3.15;;;2.53;;
67571;SDS011;54397;47.506;19.158;2023-06-14T08:26:42;5.45;;;2.90;;
67571;SDS011;54397;47.506;19.158;2023-06-14T08:30:04;2.67;;;2.30;;
67571;SDS011;54397;47.506;19.158;2023-06-14T08:33:26;3.33;;;2.78;;
67571;SDS011;54397;47.506;19.158;2023-06-14T08:36:48;2.88;;;2.58;;
67571;SDS011;54397;47.506;19.158;2023-06-14T08:40:19;2.88;;;2.28;;
67571;SDS011;54397;47.506;19.158;2023-06-14T08:43:44;4.30;;;2.33;;
67571;SDS011;54397;47.506;19.158;2023-06-14T08:47:09;3.38;;;2.53;;
67571;SDS011;54397;47.506;19.158;2023-06-14T08:50:33;4.18;;;2.30;;
67571;SDS011;54397;47.506;19.158;2023-06-14T08:54:03;3.55;;;2.85;;
67571;SDS011;54397;47.506;19.158;2023-06-14T08:57:26;5.10;;;2.90;;
67571;SDS011;54397;47.506;19.158;2023-06-14T09:00:51;4.00;;;2.45;;
67571;SDS011;54397;47.506;19.158;2023-06-14T09:04:14;3.40;;;2.33;;
67571;SDS011;54397;47.506;19.158;2023-06-14T09:07:36;3.67;;;2.30;;
67571;SDS011;54397;47.506;19.158;2023-06-14T09:11:00;2.80;;;2.17;;
67571;SDS011;54397;47.506;19.158;2023-06-14T09:14:26;3.63;;;2.10;;
67571;SDS011;54397;47.506;19.158;2023-06-14T09:17:48;2.80;;;2.00;;
67571;SDS011;54397;47.506;19.158;2023-06-14T09:21:13;3.03;;;2.33;;
67571;SDS011;54397;47.506;19.158;2023-06-14T09:24:36;3.10;;;2.20;;
67571;SDS011;54397;47.506;19.158;2023-06-14T09:27:58;2.20;;;2.00;;
67571;SDS011;54397;47.506;19.158;2023-06-14T09:31:22;1.70;;;1.60;;
67571;SDS011;54397;47.506;19.158;2023-06-14T09:34:45;4.35;;;2.55;;
67571;SDS011;54397;47.506;19.158;2023-06-14T09:38:07;3.22;;;2.08;;
67571;SDS011;54397;47.506;19.158;2023-06-14T09:45:04;4.95;;;2.47;;
67571;SDS011;54397;47.506;19.158;2023-06-14T09:48:27;2.95;;;2.00;;
67571;SDS011;54397;47.506;19.158;2023-06-14T09:51:50;3.55;;;2.47;;
67571;SDS011;54397;47.506;19.158;2023-06-14T09:55:17;1.60;;;1.50;;
67571;SDS011;54397;47.506;19.158;2023-06-14T09:58:40;2.80;;;2.30;;
67571;SDS011;54397;47.506;19.158;2023-06-14T10:02:04;2.78;;;2.10;;
67571;SDS011;54397;47.506;19.158;2023-06-14T10:05:32;4.28;;;2.50;;
67571;SDS011;54397;47.506;19.158;2023-06-14T10:08:58;2.17;;;1.98;;
67571;SDS011;54397;47.506;19.158;2023-06-14T10:12:23;2.15;;;1.90;;
67571;SDS011;54397;47.506;19.158;2023-06-14T10:15:50;4.38;;;2.58;;
67571;SDS011;54397;47.506;19.158;2023-06-14T10:23:21;1.95;;;1.48;;
67571;SDS011;54397;47.506;19.158;2023-06-14T10:26:49;2.17;;;1.90;;
67571;SDS011;54397;47.506;19.158;2023-06-14T10:30:35;2.40;;;1.50;;
67571;SDS011;54397;47.506;19.158;2023-06-14T10:33:56;2.53;;;1.88;;
67571;SDS011;54397;47.506;19.158;2023-06-14T10:37:20;2.28;;;1.70;;
67571;SDS011;54397;47.506;19.158;2023-06-14T10:40:45;2.00;;;1.70;;
67571;SDS011;54397;47.506;19.158;2023-06-14T10:47:43;2.38;;;1.80;;
67571;SDS011;54397;47.506;19.158;2023-06-14T10:51:05;1.73;;;1.63;;
67571;SDS011;54397;47.506;19.158;2023-06-14T10:54:30;1.63;;;1.52;;
67571;SDS011;54397;47.506;19.158;2023-06-14T10:57:55;1.52;;;1.42;;
67571;SDS011;54397;47.506;19.158;2023-06-14T11:01:22;2.67;;;1.77;;
67571;SDS011;54397;47.506;19.158;2023-06-14T11:05:03;2.00;;;1.80;;
67571;SDS011;54397;47.506;19.158;2023-06-14T11:12:02;1.90;;;1.65;;
67571;SDS011;54397;47.506;19.158;2023-06-14T11:15:31;1.80;;;1.67;;
67571;SDS011;54397;47.506;19.158;2023-06-14T11:18:57;1.85;;;1.75;;
67571;SDS011;54397;47.506;19.158;2023-06-14T11:22:18;4.60;;;2.30;;
67571;SDS011;54397;47.506;19.158;2023-06-14T11:25:42;1.75;;;1.63;;
67571;SDS011;54397;47.506;19.158;2023-06-14T11:29:06;2.15;;;1.95;;
67571;SDS011;54397;47.506;19.158;2023-06-14T11:32:30;2.65;;;1.75;;
67571;SDS011;54397;47.506;19.158;2023-06-14T11:35:52;3.25;;;1.92;;
67571;SDS011;54397;47.506;19.158;2023-06-14T11:39:14;1.90;;;1.70;;
67571;SDS011;54397;47.506;19.158;2023-06-14T11:42:36;1.70;;;1.60;;
67571;SDS011;54397;47.506;19.158;2023-06-14T11:45:58;2.75;;;1.75;;
67571;SDS011;54397;47.506;19.158;2023-06-14T11:49:25;2.97;;;2.00;;
67571;SDS011;54397;47.506;19.158;2023-06-14T11:52:52;2.80;;;2.22;;
67571;SDS011;54397;47.506;19.158;2023-06-14T11:56:21;4.13;;;1.65;;
67571;SDS011;54397;47.506;19.158;2023-06-14T11:59:43;1.85;;;1.75;;
67571;SDS011;54397;47.506;19.158;2023-06-14T12:03:06;2.58;;;1.63;;
67571;SDS011;54397;47.506;19.158;2023-06-14T12:06:31;1.83;;;1.73;;
67571;SDS011;54397;47.506;19.158;2023-06-14T12:13:24;1.85;;;1.63;;
67571;SDS011;54397;47.506;19.158;2023-06-14T12:16:48;2.67;;;1.75;;
67571;SDS011;54397;47.506;19.158;2023-06-14T12:20:13;3.03;;;1.90;;
67571;SDS011;54397;47.506;19.158;2023-06-14T12:27:04;1.95;;;1.50;;
67571;SDS011;54397;47.506;19.158;2023-06-14T12:30:27;2.55;;;1.70;;
67571;SDS011;54397;47.506;19.158;2023-06-14T12:33:48;1.83;;;1.73;;
67571;SDS011;54397;47.506;19.158;2023-06-14T12:37:13;2.00;;;1.70;;
67571;SDS011;54397;47.506;19.158;2023-06-14T12:40:34;4.72;;;2.00;;
67571;SDS011;54397;47.506;19.158;2023-06-14T12:43:59;1.85;;;1.60;;
67571;SDS011;54397;47.506;19.158;2023-06-14T12:47:25;2.45;;;1.98;;
67571;SDS011;54397;47.506;19.158;2023-06-14T12:50:47;2.45;;;2.03;;
67571;SDS011;54397;47.506;19.158;2023-06-14T12:54:09;1.98;;;1.48;;
67571;SDS011;54397;47.506;19.158;2023-06-14T12:57:31;1.90;;;1.80;;
67571;SDS011;54397;47.506;19.158;2023-06-14T13:00:53;1.70;;;1.60;;
67571;SDS011;54397;47.506;19.158;2023-06-14T13:04:16;5.53;;;1.98;;
67571;SDS011;54397;47.506;19.158;2023-06-14T13:07:40;2.22;;;1.45;;
67571;SDS011;54397;47.506;19.158;2023-06-14T13:11:01;2.05;;;1.85;;
67571;SDS011;54397;47.506;19.158;2023-06-14T13:14:25;2.17;;;1.55;;
67571;SDS011;54397;47.506;19.158;2023-06-14T13:17:47;2.30;;;1.83;;
67571;SDS011;54397;47.506;19.158;2023-06-14T13:21:12;1.98;;;1.77;;
67571;SDS011;54397;47.506;19.158;2023-06-14T13:24:38;1.65;;;1.55;;
67571;SDS011;54397;47.506;19.158;2023-06-14T13:28:05;1.48;;;1.38;;
67571;SDS011;54397;47.506;19.158;2023-06-14T13:31:29;1.98;;;1.67;;
67571;SDS011;54397;47.506;19.158;2023-06-14T13:34:51;2.08;;;1.70;;
67571;SDS011;54397;47.506;19.158;2023-06-14T13:38:15;1.67;;;1.50;;
67571;SDS011;54397;47.506;19.158;2023-06-14T13:41:37;4.97;;;1.70;;
67571;SDS011;54397;47.506;19.158;2023-06-14T13:44:59;2.75;;;1.60;;
67571;SDS011;54397;47.506;19.158;2023-06-14T13:48:20;1.50;;;1.40;;
67571;SDS011;54397;47.506;19.158;2023-06-14T13:51:43;1.40;;;1.30;;
67571;SDS011;54397;47.506;19.158;2023-06-14T13:55:04;1.70;;;1.60;;
67571;SDS011;54397;47.506;19.158;2023-06-14T13:58:27;1.60;;;1.50;;
67571;SDS011;54397;47.506;19.158;2023-06-14T14:01:48;1.67;;;1.58;;
67571;SDS011;54397;47.506;19.158;2023-06-14T14:05:15;1.50;;;1.40;;
67571;SDS011;54397;47.506;19.158;2023-06-14T14:08:37;2.63;;;1.60;;
67571;SDS011;54397;47.506;19.158;2023-06-14T14:11:59;2.78;;;1.70;;
67571;SDS011;54397;47.506;19.158;2023-06-14T14:15:20;6.63;;;1.80;;
67571;SDS011;54397;47.506;19.158;2023-06-14T14:18:42;1.63;;;1.52;;
67571;SDS011;54397;47.506;19.158;2023-06-14T14:22:04;1.52;;;1.40;;
67571;SDS011;54397;47.506;19.158;2023-06-14T14:25:26;1.40;;;1.30;;
67571;SDS011;54397;47.506;19.158;2023-06-14T14:28:48;1.70;;;1.60;;
67571;SDS011;54397;47.506;19.158;2023-06-14T14:32:09;1.60;;;1.50;;
67571;SDS011;54397;47.506;19.158;2023-06-14T14:35:35;2.08;;;1.60;;
67571;SDS011;54397;47.506;19.158;2023-06-14T14:38:57;1.55;;;1.38;;
67571;SDS011;54397;47.506;19.158;2023-06-14T14:42:21;2.20;;;1.70;;
67571;SDS011;54397;47.506;19.158;2023-06-14T14:45:43;1.50;;;1.40;;
67571;SDS011;54397;47.506;19.158;2023-06-14T14:49:04;1.55;;;1.38;;
67571;SDS011;54397;47.506;19.158;2023-06-14T14:52:29;2.47;;;1.70;;
67571;SDS011;54397;47.506;19.158;2023-06-14T14:55:53;2.40;;;1.90;;
67571;SDS011;54397;47.506;19.158;2023-06-14T14:59:14;2.17;;;1.65;;
67571;SDS011;54397;47.506;19.158;2023-06-14T15:02:36;1.80;;;1.40;;
67571;SDS011;54397;47.506;19.158;2023-06-14T15:06:01;1.35;;;1.25;;
67571;SDS011;54397;47.506;19.158;2023-06-14T15:09:26;1.48;;;1.30;;
67571;SDS011;54397;47.506;19.158;2023-06-14T15:12:50;1.75;;;1.50;;
67571;SDS011;54397;47.506;19.158;2023-06-14T15:16:11;1.10;;;1.10;;
67571;SDS011;54397;47.506;19.158;2023-06-14T15:19:33;2.80;;;1.83;;
67571;SDS011;54397;47.506;19.158;2023-06-14T15:22:55;1.67;;;1.50;;
67571;SDS011;54397;47.506;19.158;2023-06-14T15:26:20;2.75;;;1.40;;
67571;SDS011;54397;47.506;19.158;2023-06-14T15:29:42;1.88;;;1.55;;
67571;SDS011;54397;47.506;19.158;2023-06-14T15:33:04;11.65;;;7.65;;
67571;SDS011;54397;47.506;19.158;2023-06-14T15:36:26;3.63;;;2.40;;
67571;SDS011;54397;47.506;19.158;2023-06-14T15:39:48;2.45;;;1.88;;
67571;SDS011;54397;47.506;19.158;2023-06-14T15:43:09;2.95;;;1.60;;
67571;SDS011;54397;47.506;19.158;2023-06-14T15:46:31;2.47;;;1.35;;
67571;SDS011;54397;47.506;19.158;2023-06-14T15:49:53;2.67;;;1.85;;
67571;SDS011;54397;47.506;19.158;2023-06-14T15:53:14;2.33;;;1.95;;
67571;SDS011;54397;47.506;19.158;2023-06-14T15:56:36;1.67;;;1.42;;
67571;SDS011;54397;47.506;19.158;2023-06-14T16:00:00;2.42;;;1.60;;
67571;SDS011;54397;47.506;19.158;2023-06-14T16:03:22;1.80;;;1.70;;
67571;SDS011;54397;47.506;19.158;2023-06-14T16:06:44;1.52;;;1.42;;
67571;SDS011;54397;47.506;19.158;2023-06-14T16:10:06;2.40;;;1.63;;
67571;SDS011;54397;47.506;19.158;2023-06-14T16:13:28;1.80;;;1.70;;
67571;SDS011;54397;47.506;19.158;2023-06-14T16:16:50;1.35;;;1.30;;
67571;SDS011;54397;47.506;19.158;2023-06-14T16:20:13;1.88;;;1.52;;
67571;SDS011;54397;47.506;19.158;2023-06-14T16:23:38;1.65;;;1.30;;
67571;SDS011;54397;47.506;19.158;2023-06-14T16:27:00;3.67;;;1.60;;
67571;SDS011;54397;47.506;19.158;2023-06-14T16:30:23;2.83;;;1.50;;
67571;SDS011;54397;47.506;19.158;2023-06-14T16:33:45;1.60;;;1.40;;
67571;SDS011;54397;47.506;19.158;2023-06-14T16:37:08;2.85;;;2.10;;
67571;SDS011;54397;47.506;19.158;2023-06-14T16:40:29;4.47;;;2.08;;
67571;SDS011;54397;47.506;19.158;2023-06-14T16:43:53;1.85;;;1.40;;
67571;SDS011;54397;47.506;19.158;2023-06-14T16:47:20;2.33;;;1.42;;
67571;SDS011;54397;47.506;19.158;2023-06-14T16:50:44;2.55;;;1.85;;
67571;SDS011;54397;47.506;19.158;2023-06-14T16:54:07;1.75;;;1.27;;
67571;SDS011;54397;47.506;19.158;2023-06-14T16:57:31;1.58;;;1.48;;
67571;SDS011;54397;47.506;19.158;2023-06-14T17:00:53;9.27;;;6.30;;
67571;SDS011;54397;47.506;19.158;2023-06-14T17:04:15;3.95;;;2.90;;
67571;SDS011;54397;47.506;19.158;2023-06-14T17:07:39;1.85;;;1.35;;
67571;SDS011;54397;47.506;19.158;2023-06-14T17:11:01;2.17;;;1.60;;
67571;SDS011;54397;47.506;19.158;2023-06-14T17:14:23;1.50;;;1.40;;
67571;SDS011;54397;47.506;19.158;2023-06-14T17:17:44;2.63;;;1.67;;
67571;SDS011;54397;47.506;19.158;2023-06-14T17:21:06;1.70;;;1.60;;
67571;SDS011;54397;47.506;19.158;2023-06-14T17:24:28;1.33;;;1.23;;
67571;SDS011;54397;47.506;19.158;2023-06-14T17:27:52;2.33;;;1.52;;
67571;SDS011;54397;47.506;19.158;2023-06-14T17:31:14;2.50;;;1.75;;
67571;SDS011;54397;47.506;19.158;2023-06-14T17:34:35;1.50;;;1.40;;
67571;SDS011;54397;47.506;19.158;2023-06-14T17:37:57;1.60;;;1.50;;
67571;SDS011;54397;47.506;19.158;2023-06-14T17:41:21;4.43;;;1.83;;
67571;SDS011;54397;47.506;19.158;2023-06-14T17:44:44;3.55;;;1.92;;
67571;SDS011;54397;47.506;19.158;2023-06-14T17:48:06;2.33;;;1.52;;
67571;SDS011;54397;47.506;19.158;2023-06-14T17:51:32;2.25;;;1.90;;
67571;SDS011;54397;47.506;19.158;2023-06-14T17:54:56;1.83;;;1.55;;
67571;SDS011;54397;47.506;19.158;2023-06-14T17:58:21;2.72;;;2.00;;
67571;SDS011;54397;47.506;19.158;2023-06-14T18:01:42;3.25;;;1.60;;
67571;SDS011;54397;47.506;19.158;2023-06-14T18:05:07;3.25;;;1.70;;
67571;SDS011;54397;47.506;19.158;2023-06-14T18:08:31;5.15;;;1.80;;
67571;SDS011;54397;47.506;19.158;2023-06-14T18:11:59;2.92;;;1.60;;
67571;SDS011;54397;47.506;19.158;2023-06-14T18:15:24;3.47;;;1.80;;
67571;SDS011;54397;47.506;19.158;2023-06-14T18:18:45;1.55;;;1.45;;
67571;SDS011;54397;47.506;19.158;2023-06-14T18:22:10;1.80;;;1.45;;
67571;SDS011;54397;47.506;19.158;2023-06-14T18:25:31;3.33;;;1.67;;
67571;SDS011;54397;47.506;19.158;2023-06-14T18:28:55;2.28;;;1.90;;
67571;SDS011;54397;47.506;19.158;2023-06-14T18:32:17;1.73;;;1.63;;
67571;SDS011;54397;47.506;19.158;2023-06-14T18:35:39;2.85;;;1.90;;
67571;SDS011;54397;47.506;19.158;2023-06-14T18:39:01;2.25;;;1.98;;
67571;SDS011;54397;47.506;19.158;2023-06-14T18:42:22;4.25;;;2.17;;
67571;SDS011;54397;47.506;19.158;2023-06-14T18:45:44;1.85;;;1.67;;
67571;SDS011;54397;47.506;19.158;2023-06-14T18:49:11;2.83;;;1.75;;
67571;SDS011;54397;47.506;19.158;2023-06-14T18:52:35;2.38;;;2.15;;
67571;SDS011;54397;47.506;19.158;2023-06-14T18:55:57;2.50;;;2.05;;
67571;SDS011;54397;47.506;19.158;2023-06-14T18:59:21;2.25;;;2.00;;
67571;SDS011;54397;47.506;19.158;2023-06-14T19:02:43;3.35;;;1.92;;
67571;SDS011;54397;47.506;19.158;2023-06-14T19:06:05;2.15;;;1.85;;
67571;SDS011;54397;47.506;19.158;2023-06-14T19:09:27;3.90;;;2.13;;
67571;SDS011;54397;47.506;19.158;2023-06-14T19:12:48;3.10;;;2.08;;
67571;SDS011;54397;47.506;19.158;2023-06-14T19:16:10;6.05;;;1.75;;
67571;SDS011;54397;47.506;19.158;2023-06-14T19:19:34;3.00;;;2.05;;
67571;SDS011;54397;47.506;19.158;2023-06-14T19:22:58;2.25;;;1.70;;
67571;SDS011;54397;47.506;19.158;2023-06-14T19:26:24;7.38;;;2.05;;
67571;SDS011;54397;47.506;19.158;2023-06-14T19:29:49;3.20;;;1.70;;
67571;SDS011;54397;47.506;19.158;2023-06-14T19:33:11;2.55;;;1.95;;
67571;SDS011;54397;47.506;19.158;2023-06-14T19:36:34;3.05;;;1.88;;
67571;SDS011;54397;47.506;19.158;2023-06-14T19:39:58;2.83;;;2.20;;
67571;SDS011;54397;47.506;19.158;2023-06-14T19:43:20;2.55;;;1.85;;
67571;SDS011;54397;47.506;19.158;2023-06-14T19:46:44;3.70;;;1.67;;
67571;SDS011;54397;47.506;19.158;2023-06-14T19:50:06;3.65;;;2.00;;
67571;SDS011;54397;47.506;19.158;2023-06-14T19:53:30;4.07;;;2.67;;
67571;SDS011;54397;47.506;19.158;2023-06-14T19:56:52;3.45;;;2.17;;
67571;SDS011;54397;47.506;19.158;2023-06-14T20:00:16;2.90;;;2.00;;
67571;SDS011;54397;47.506;19.158;2023-06-14T20:03:39;3.50;;;2.17;;
67571;SDS011;54397;47.506;19.158;2023-06-14T20:07:02;3.45;;;2.35;;
67571;SDS011;54397;47.506;19.158;2023-06-14T20:10:28;1.95;;;1.75;;
67571;SDS011;54397;47.506;19.158;2023-06-14T20:13:50;2.30;;;1.90;;
67571;SDS011;54397;47.506;19.158;2023-06-14T20:17:16;4.40;;;2.17;;
67571;SDS011;54397;47.506;19.158;2023-06-14T20:20:38;4.47;;;2.10;;
67571;SDS011;54397;47.506;19.158;2023-06-14T20:24:02;2.25;;;2.05;;
67571;SDS011;54397;47.506;19.158;2023-06-14T20:27:24;2.95;;;2.17;;
67571;SDS011;54397;47.506;19.158;2023-06-14T20:30:50;2.42;;;1.95;;
67571;SDS011;54397;47.506;19.158;2023-06-14T20:34:12;3.13;;;1.65;;